Time;durP1;ratioP1;P1;durP2;ratioP2;P2;SDS_P1;SDS_P2;PMS_P1;PMS_P2;Temp;Humidity;BMP_temperature;BMP_pressure;BME280_temperature;BME280_humidity;BME280_pressure;Samples;Min_cycle;Max_cycle;Signal;HPM_P1;HPM_P2
2023/04/29 00:02:13;;;;;;;42.97;24.13;;;;;;;10.83;94.75;100707.56;5093664;28;20185;-67
2023/04/29 00:04:39;;;;;;;48.63;25.43;;;;;;;10.85;94.00;100705.63;5093944;28;20181;-67
2023/04/29 00:07:07;;;;;;;54.27;27.37;;;;;;;10.81;94.13;100710.34;5093525;28;20687;-67
2023/04/29 00:09:35;;;;;;;64.50;28.03;;;;;;;10.82;94.73;100711.19;5093562;28;20215;-67
2023/04/29 00:12:01;;;;;;;55.77;27.60;;;;;;;10.77;94.02;100716.88;5093540;28;20192;-67
2023/04/29 00:14:27;;;;;;;57.23;27.60;;;;;;;10.71;93.76;100717.34;5093497;28;20182;-68
2023/04/29 00:16:54;;;;;;;59.03;26.30;;;;;;;10.67;94.62;100717.66;5093404;28;20239;-68
2023/04/29 00:19:20;;;;;;;60.20;27.80;;;;;;;10.63;93.79;100719.69;5093378;28;20213;-67
2023/04/29 00:21:46;;;;;;;62.07;27.97;;;;;;;10.62;94.63;100729.56;5093463;28;20197;-68
2023/04/29 00:24:13;;;;;;;60.30;29.33;;;;;;;10.63;93.98;100720.59;5093946;28;20196;-67
2023/04/29 00:26:40;;;;;;;59.97;28.07;;;;;;;10.60;94.45;100728.81;5093205;28;20213;-67
2023/04/29 00:29:06;;;;;;;61.43;28.20;;;;;;;10.56;95.04;100731.81;5093659;28;20512;-67
2023/04/29 00:31:32;;;;;;;68.33;29.60;;;;;;;10.53;94.74;100732.91;5075805;28;20196;-68
2023/04/29 00:33:59;;;;;;;69.33;29.03;;;;;;;10.49;95.07;100736.78;5075215;28;20239;-67
2023/04/29 00:36:25;;;;;;;68.57;29.60;;;;;;;10.49;94.93;100739.47;5075145;28;20206;-68
2023/04/29 00:38:52;;;;;;;74.63;29.70;;;;;;;10.48;94.36;100737.72;5075409;28;20194;-67
2023/04/29 00:41:19;;;;;;;80.30;30.63;;;;;;;10.45;95.05;100745.13;5093153;28;20214;-67
2023/04/29 00:43:45;;;;;;;73.10;28.53;;;;;;;10.39;95.37;100746.41;5075090;28;20215;-67
2023/04/29 00:46:12;;;;;;;76.80;30.43;;;;;;;10.37;94.60;100751.03;5093144;28;20209;-67
2023/04/29 00:48:40;;;;;;;92.93;32.30;;;;;;;10.29;94.68;100756.91;5093167;28;20657;-67
2023/04/29 00:51:07;;;;;;;94.33;33.83;;;;;;;10.23;94.72;100749.28;5058521;28;20193;-67
2023/04/29 00:53:33;;;;;;;102.73;34.97;;;;;;;10.19;95.29;100766.53;5097164;28;20182;-68
2023/04/29 00:56:00;;;;;;;98.70;34.83;;;;;;;10.19;95.42;100759.34;5078959;28;20240;-67
2023/04/29 00:58:32;;;;;;;101.90;37.13;;;;;;;10.16;95.52;100764.06;5097393;28;20553;-67
2023/04/29 01:01:05;;;;;;;103.10;38.43;;;;;;;10.09;95.26;100766.31;5097069;28;20296;-67
2023/04/29 01:03:32;;;;;;;102.07;37.60;;;;;;;10.08;95.63;100763.72;5078910;28;20592;-67
2023/04/29 01:06:12;;;;;;;112.97;37.73;;;;;;;10.07;95.54;100770.06;5078766;28;20244;-67
2023/04/29 01:09:03;;;;;;;111.93;39.70;;;;;;;10.01;95.93;100779.38;5096976;28;20198;-67
2023/04/29 01:11:41;;;;;;;112.23;39.57;;;;;;;9.99;96.02;100760.75;5095653;28;20186;-67
2023/04/29 01:14:08;;;;;;;124.43;41.90;;;;;;;10.05;95.72;100771.97;5097425;28;20249;-67
2023/04/29 01:16:43;;;;;;;122.37;42.30;;;;;;;9.95;95.98;100777.94;5078508;28;20214;-67
2023/04/29 01:19:39;;;;;;;114.53;40.20;;;;;;;9.97;95.85;100775.19;5078650;28;20181;-67
2023/04/29 01:22:06;;;;;;;119.70;41.60;;;;;;;9.97;95.66;100777.84;5078358;28;20655;-67
2023/04/29 01:24:33;;;;;;;119.80;40.63;;;;;;;9.92;96.25;100783.53;5078697;28;20186;-67
2023/04/29 01:27:22;;;;;;;125.10;41.03;;;;;;;9.92;96.26;100778.19;5078438;28;20218;-67
2023/04/29 01:30:21;;;;;;;126.13;42.53;;;;;;;9.94;96.44;100783.44;5079268;28;20178;-67
2023/04/29 01:32:55;;;;;;;119.07;41.57;;;;;;;9.88;96.05;100782.00;5078264;28;20182;-67
2023/04/29 01:35:43;;;;;;;118.23;39.60;;;;;;;9.80;96.91;100792.38;5078476;28;20213;-68
2023/04/29 01:38:24;;;;;;;127.23;38.90;;;;;;;9.75;97.06;100794.53;5096995;28;20176;-68
2023/04/29 01:41:14;;;;;;;105.90;35.80;;;;;;;9.60;96.66;100791.06;5078370;28;20206;-67
2023/04/29 01:43:46;;;;;;;118.50;35.73;;;;;;;9.48;96.47;100803.44;5078682;28;20178;-67
2023/04/29 01:46:18;;;;;;;105.43;34.77;;;;;;;9.46;96.64;100804.50;5078440;28;20675;-67
2023/04/29 01:48:45;;;;;;;96.53;34.40;;;;;;;9.40;96.67;100797.72;5077979;28;20213;-67
2023/04/29 01:51:12;;;;;;;101.70;34.87;;;;;;;9.46;96.63;100808.00;5078247;28;20197;-67
2023/04/29 01:53:39;;;;;;;119.57;37.97;;;;;;;9.39;96.77;100811.19;5077966;28;20196;-67
2023/04/29 01:56:09;;;;;;;117.43;37.60;;;;;;;9.42;96.67;100817.19;5095246;28;20270;-67
2023/04/29 01:59:08;;;;;;;120.00;37.03;;;;;;;9.40;97.06;100815.56;5081747;28;20201;-67
2023/04/29 02:01:53;;;;;;;110.43;36.37;;;;;;;9.40;96.96;100815.56;5096734;28;20191;-67
2023/04/29 02:04:19;;;;;;;115.43;37.07;;;;;;;9.42;96.59;100816.34;5077381;28;20213;-67
2023/04/29 02:06:46;;;;;;;116.20;37.97;;;;;;;9.39;96.65;100814.72;5077608;28;20206;-67
2023/04/29 02:09:16;;;;;;;124.17;37.53;;;;;;;9.41;96.58;100817.28;5077644;28;20214;-67
2023/04/29 02:11:48;;;;;;;106.10;36.30;;;;;;;9.35;96.70;100821.22;5077892;28;20276;-67
2023/04/29 02:14:14;;;;;;;107.17;36.03;;;;;;;9.35;96.59;100831.91;5077555;28;20197;-67
2023/04/29 02:16:44;;;;;;;119.40;35.87;;;;;;;9.36;96.28;100833.59;5077706;28;20210;-67
2023/04/29 02:19:12;;;;;;;109.10;37.17;;;;;;;9.41;96.21;100836.88;5077363;28;20197;-67
2023/04/29 02:21:39;;;;;;;96.17;33.97;;;;;;;9.40;96.20;100832.47;5077377;28;20241;-67
2023/04/29 02:24:05;;;;;;;98.90;33.10;;;;;;;9.42;96.07;100832.38;5095487;28;20186;-67
2023/04/29 02:26:33;;;;;;;94.93;31.73;;;;;;;9.36;96.16;100834.50;5095255;28;20255;-66
2023/04/29 02:28:59;;;;;;;87.10;31.40;;;;;;;9.37;96.23;100830.84;5096013;28;20400;-66
2023/04/29 02:31:27;;;;;;;89.67;30.27;;;;;;;9.32;95.89;100838.31;5077195;28;20203;-66
2023/04/29 02:33:54;;;;;;;86.23;29.13;;;;;;;9.23;96.09;100846.06;5095812;28;20277;-67
2023/04/29 02:36:20;;;;;;;80.77;28.90;;;;;;;9.20;96.02;100851.63;5077027;28;20263;-67
2023/04/29 02:38:49;;;;;;;71.07;27.40;;;;;;;9.22;96.20;100853.22;5077582;28;20186;-67
2023/04/29 02:41:17;;;;;;;71.60;26.83;;;;;;;9.16;96.58;100850.94;5095522;28;20212;-67
2023/04/29 02:43:43;;;;;;;80.30;27.07;;;;;;;9.16;96.62;100853.59;5095647;28;20194;-67
2023/04/29 02:46:11;;;;;;;69.13;25.90;;;;;;;9.12;96.64;100862.78;5076912;28;20217;-67
2023/04/29 02:48:37;;;;;;;77.33;26.93;;;;;;;9.11;97.07;100863.75;5095065;28;20178;-67
2023/04/29 02:51:04;;;;;;;62.47;25.20;;;;;;;9.13;97.02;100860.00;5076804;28;20221;-67
2023/04/29 02:53:31;;;;;;;70.87;25.27;;;;;;;9.10;96.80;100868.22;5093611;28;20197;-67
2023/04/29 02:55:58;;;;;;;60.13;24.73;;;;;;;9.10;96.65;100865.56;5076697;28;20237;-67
2023/04/29 02:58:24;;;;;;;57.07;23.47;;;;;;;9.09;96.79;100873.66;5076667;28;20217;-67
2023/04/29 03:00:51;;;;;;;68.27;25.50;;;;;;;9.04;97.29;100876.63;5076586;28;20216;-67
2023/04/29 03:03:18;;;;;;;73.13;27.23;;;;;;;9.03;97.20;100872.25;5094831;28;20181;-67
2023/04/29 03:05:44;;;;;;;68.10;26.57;;;;;;;9.03;96.99;100877.59;5076727;28;20221;-67
2023/04/29 03:08:11;;;;;;;69.47;25.27;;;;;;;9.01;97.19;100871.47;5076565;28;20193;-67
2023/04/29 03:10:38;;;;;;;62.87;26.13;;;;;;;9.02;97.12;100875.84;5076489;28;20584;-67
2023/04/29 03:13:07;;;;;;;56.37;24.00;;;;;;;9.00;97.42;100876.91;5077275;28;20193;-67
2023/04/29 03:15:35;;;;;;;67.40;25.37;;;;;;;9.06;97.48;100887.22;5075893;28;20237;-67
2023/04/29 03:18:03;;;;;;;58.33;24.20;;;;;;;9.01;97.34;100875.97;5076309;28;20734;-67
2023/04/29 03:20:32;;;;;;;63.07;24.77;;;;;;;9.03;97.10;100890.09;5076273;28;20205;-67
2023/04/29 03:23:01;;;;;;;57.17;24.07;;;;;;;9.02;97.03;100889.22;5076767;28;20194;-67
2023/04/29 03:25:28;;;;;;;57.63;24.50;;;;;;;8.97;97.08;100891.31;5076156;28;20649;-67
2023/04/29 03:27:54;;;;;;;55.60;23.90;;;;;;;8.97;97.29;100891.31;5076123;28;20251;-67
2023/04/29 03:30:21;;;;;;;56.20;22.43;;;;;;;8.99;97.01;100888.56;5076115;28;20651;-67
2023/04/29 03:32:50;;;;;;;54.90;23.33;;;;;;;9.00;97.75;100900.94;5076051;28;20544;-67
2023/04/29 03:35:17;;;;;;;52.87;22.77;;;;;;;8.97;97.15;100898.47;5075980;28;20212;-67
2023/04/29 03:38:06;;;;;;;60.73;24.10;;;;;;;8.95;97.33;100898.56;5094208;28;20197;-67
2023/04/29 03:40:34;;;;;;;55.13;23.63;;;;;;;8.93;97.73;100900.47;5075908;28;20220;-67
2023/04/29 03:43:01;;;;;;;59.57;24.90;;;;;;;8.93;97.64;100903.13;5076082;28;20200;-66
2023/04/29 03:45:27;;;;;;;53.87;24.23;;;;;;;8.91;97.94;100892.56;5075766;28;20220;-66
2023/04/29 03:47:54;;;;;;;53.23;23.17;;;;;;;8.90;98.05;100909.53;5075790;28;20189;-67
2023/04/29 03:50:22;;;;;;;54.63;22.57;;;;;;;8.89;97.89;100909.66;5075736;28;20666;-66
2023/04/29 03:52:48;;;;;;;54.30;23.23;;;;;;;8.91;97.91;100900.59;5094112;28;20193;-67
2023/04/29 03:55:16;;;;;;;50.23;23.10;;;;;;;8.89;97.78;100904.31;5076190;28;20210;-67
2023/04/29 03:57:43;;;;;;;57.87;24.67;;;;;;;8.91;98.18;100907.75;5075679;28;20224;-67
2023/04/29 04:00:11;;;;;;;53.23;23.93;;;;;;;8.91;98.34;100902.41;5076058;28;20251;-67
2023/04/29 04:02:47;;;;;;;48.13;23.97;;;;;;;8.93;98.43;100909.38;5076652;28;20193;-67
2023/04/29 04:05:14;;;;;;;52.87;22.57;;;;;;;8.96;98.30;100910.97;5093872;28;20202;-67
2023/04/29 04:07:46;;;;;;;55.53;23.67;;;;;;;8.92;98.48;100920.13;5075789;28;20221;-67
2023/04/29 04:10:42;;;;;;;57.50;23.80;;;;;;;8.92;98.36;100917.47;5084601;28;20281;-67
2023/04/29 04:13:37;;;;;;;51.03;22.53;;;;;;;8.89;98.79;100921.19;5084568;28;20205;-67
2023/04/29 04:16:04;;;;;;;56.00;24.07;;;;;;;8.86;98.56;100931.19;5075320;28;20209;-68
2023/04/29 04:18:30;;;;;;;52.63;23.07;;;;;;;8.91;98.46;100931.78;5075366;28;20676;-68
2023/04/29 04:20:57;;;;;;;46.03;21.90;;;;;;;8.91;98.81;100929.97;5075287;28;20651;-68
2023/04/29 04:23:24;;;;;;;47.83;22.30;;;;;;;8.97;98.65;100933.19;5075432;28;20204;-68
2023/04/29 04:25:52;;;;;;;49.80;23.33;;;;;;;8.96;98.55;100939.50;5075115;28;20220;-67
2023/04/29 04:28:37;;;;;;;54.10;23.17;;;;;;;8.92;98.55;100937.00;5093874;28;20587;-67
2023/04/29 04:31:22;;;;;;;55.03;23.80;;;;;;;8.94;98.57;100939.59;5093928;28;20269;-67
2023/04/29 04:33:49;;;;;;;49.30;22.50;;;;;;;8.96;97.88;100947.53;5075311;28;20197;-67
2023/04/29 04:36:16;;;;;;;59.20;24.13;;;;;;;8.99;98.22;100947.31;5075158;28;20221;-68
2023/04/29 04:38:43;;;;;;;55.90;23.67;;;;;;;8.91;98.24;100947.81;5075181;28;20198;-67
2023/04/29 04:41:11;;;;;;;59.80;26.30;;;;;;;8.98;98.21;100954.50;5091894;28;20233;-67
2023/04/29 04:43:39;;;;;;;51.30;24.20;;;;;;;8.98;98.17;100951.81;5075095;28;20555;-67
2023/04/29 04:46:14;;;;;;;59.93;25.20;;;;;;;8.96;97.94;100956.38;5075991;28;20585;-68
2023/04/29 04:48:52;;;;;;;56.77;24.73;;;;;;;8.98;98.17;100965.16;5075975;28;20559;-68
2023/04/29 04:51:19;;;;;;;53.93;23.87;;;;;;;8.95;98.29;100962.66;5076158;28;20211;-68
2023/04/29 04:53:46;;;;;;;57.53;25.37;;;;;;;8.97;98.07;100971.44;5075111;28;20227;-68
2023/04/29 04:56:21;;;;;;;48.60;24.97;;;;;;;9.03;97.69;100971.09;5075119;28;20223;-67
2023/04/29 04:58:48;;;;;;;47.53;23.67;;;;;;;9.03;97.56;100973.75;5074961;28;20200;-67
2023/04/29 05:01:14;;;;;;;52.50;25.90;;;;;;;8.99;97.37;100974.03;5093040;28;20248;-67
2023/04/29 05:03:41;;;;;;;58.37;24.73;;;;;;;8.98;97.06;100970.50;5074873;28;20205;-67
2023/04/29 05:06:07;;;;;;;55.50;26.30;;;;;;;9.01;96.95;100970.31;5092395;28;20214;-67
2023/04/29 05:08:34;;;;;;;52.03;25.70;;;;;;;8.97;97.03;100975.94;5075481;28;20292;-67
2023/04/29 05:11:03;;;;;;;49.40;24.87;;;;;;;8.97;97.20;100974.13;5074919;28;20248;-67
2023/04/29 05:13:29;;;;;;;52.93;26.03;;;;;;;9.01;96.92;100983.69;5075646;28;20246;-67
2023/04/29 05:15:56;;;;;;;48.97;24.57;;;;;;;9.01;97.23;100986.34;5074788;28;20308;-67
2023/04/29 05:18:25;;;;;;;58.03;26.03;;;;;;;9.00;96.71;100987.28;5075044;28;20204;-67
2023/04/29 05:20:52;;;;;;;63.87;27.50;;;;;;;8.99;96.75;100988.25;5075563;28;20210;-67
2023/04/29 05:23:18;;;;;;;46.17;24.47;;;;;;;8.98;96.68;100997.22;5074752;28;20190;-67
2023/04/29 05:25:45;;;;;;;53.97;25.50;;;;;;;8.94;96.86;100987.66;5074725;28;20244;-67
2023/04/29 05:28:12;;;;;;;48.60;25.07;;;;;;;8.98;96.81;100989.22;5075148;28;20193;-67
2023/04/29 05:30:40;;;;;;;55.80;26.07;;;;;;;9.00;96.45;100999.78;5075577;28;20192;-67
2023/04/29 05:33:07;;;;;;;54.30;27.03;;;;;;;8.99;96.45;101004.28;5075212;28;20190;-67
2023/04/29 05:35:33;;;;;;;58.60;26.90;;;;;;;8.98;96.27;101004.34;5074742;28;20802;-67
2023/04/29 05:38:00;;;;;;;52.43;25.30;;;;;;;9.00;95.76;101014.00;5075902;28;20240;-67
2023/04/29 05:40:33;;;;;;;54.17;26.40;;;;;;;9.00;96.10;101014.00;5078678;28;20250;-67
2023/04/29 05:43:18;;;;;;;49.43;23.73;;;;;;;9.01;96.04;101015.72;5078983;28;20186;-67
2023/04/29 05:45:47;;;;;;;57.77;25.93;;;;;;;9.02;96.20;101016.59;5096213;28;20219;-67
2023/04/29 05:48:14;;;;;;;52.50;26.80;;;;;;;9.00;96.35;101023.81;5096174;28;20670;-67
2023/04/29 05:50:43;;;;;;;55.13;25.57;;;;;;;9.04;96.08;101023.56;5096996;28;20269;-67
2023/04/29 05:53:10;;;;;;;46.30;26.70;;;;;;;9.09;96.20;101029.47;5077978;28;20197;-67
2023/04/29 05:55:36;;;;;;;56.30;24.53;;;;;;;9.09;96.01;101033.97;5077902;28;20296;-68
2023/04/29 05:58:03;;;;;;;53.60;26.73;;;;;;;9.13;96.00;101035.50;5077900;28;20206;-67
2023/04/29 06:00:30;;;;;;;46.33;25.07;;;;;;;9.10;95.71;101043.72;5096562;28;20580;-67
2023/04/29 06:03:05;;;;;;;50.23;26.37;;;;;;;9.06;95.50;101048.38;5078396;28;20188;-67
2023/04/29 06:05:32;;;;;;;50.07;26.27;;;;;;;9.07;95.83;101047.41;5077821;28;20209;-67
2023/04/29 06:08:15;;;;;;;48.37;25.30;;;;;;;9.09;95.62;101060.69;5077749;28;20610;-67
2023/04/29 06:11:04;;;;;;;48.07;25.87;;;;;;;9.11;95.45;101069.47;5095092;28;20197;-67
2023/04/29 06:13:31;;;;;;;50.77;25.20;;;;;;;9.12;95.29;101068.50;5077691;28;20251;-67
2023/04/29 06:15:58;;;;;;;53.13;26.47;;;;;;;9.11;95.00;101061.44;5095548;28;20217;-67
2023/04/29 06:18:26;;;;;;;50.80;25.87;;;;;;;9.08;94.86;101075.00;5077546;28;20203;-67
2023/04/29 06:20:52;;;;;;;47.73;25.77;;;;;;;9.11;95.04;101069.47;5077636;28;20238;-67
2023/04/29 06:23:18;;;;;;;50.50;26.70;;;;;;;9.11;95.07;101077.47;5077438;28;20541;-67
2023/04/29 06:25:45;;;;;;;47.03;25.57;;;;;;;9.09;95.33;101076.72;5077330;28;20296;-67
2023/04/29 06:28:11;;;;;;;49.27;24.97;;;;;;;9.10;94.93;101081.13;5077869;28;20194;-67
2023/04/29 06:30:38;;;;;;;42.70;24.57;;;;;;;9.06;94.60;101087.59;5077305;28;20288;-66
2023/04/29 06:33:04;;;;;;;50.60;25.23;;;;;;;9.04;94.91;101090.34;5077224;28;20190;-67
2023/04/29 06:35:31;;;;;;;50.83;26.57;;;;;;;9.01;94.78;101097.69;5077058;28;20223;-67
2023/04/29 06:38:11;;;;;;;51.10;24.20;;;;;;;8.98;95.43;101097.84;5077238;28;20252;-67
2023/04/29 06:40:51;;;;;;;40.37;25.20;;;;;;;8.96;95.51;101099.78;5077030;28;20199;-67
2023/04/29 06:43:32;;;;;;;41.97;25.23;;;;;;;8.97;95.29;101098.81;5096033;28;20174;-67
2023/04/29 06:46:26;;;;;;;53.27;26.67;;;;;;;9.00;95.62;101110.16;5076807;28;20210;-67
2023/04/29 06:49:02;;;;;;;49.03;25.70;;;;;;;9.02;95.15;101113.63;5077833;28;20199;-67
2023/04/29 06:51:31;;;;;;;52.40;26.60;;;;;;;8.97;95.41;101118.38;5095257;28;20269;-67
2023/04/29 06:53:57;;;;;;;40.30;25.87;;;;;;;8.99;95.49;101118.28;5077024;28;20197;-67
2023/04/29 06:56:24;;;;;;;52.90;28.00;;;;;;;9.02;95.12;101123.44;5076631;28;20213;-67
2023/04/29 06:58:50;;;;;;;57.63;26.73;;;;;;;8.96;95.70;101123.81;5094860;28;20189;-67
2023/04/29 07:01:17;;;;;;;55.73;28.03;;;;;;;8.97;95.41;101129.06;5095543;28;20638;-67
2023/04/29 07:03:43;;;;;;;58.97;29.03;;;;;;;8.91;95.11;101122.28;5093423;28;20200;-67
2023/04/29 07:06:11;;;;;;;50.00;26.13;;;;;;;8.90;95.18;101128.53;5094620;28;20209;-67
2023/04/29 07:08:37;;;;;;;54.57;28.13;;;;;;;8.91;95.69;101127.63;5095074;28;20189;-67
2023/04/29 07:11:04;;;;;;;56.10;27.03;;;;;;;8.86;95.08;101139.50;5076372;28;20207;-67
2023/04/29 07:13:30;;;;;;;60.07;27.20;;;;;;;8.88;95.79;101142.94;5095405;28;20671;-67
2023/04/29 07:15:57;;;;;;;60.93;29.47;;;;;;;8.88;95.72;101145.63;5094465;28;20287;-67
2023/04/29 07:18:23;;;;;;;57.87;28.57;;;;;;;8.87;95.53;101143.91;5095261;28;20192;-67
2023/04/29 07:20:51;;;;;;;57.73;27.80;;;;;;;8.85;96.02;101146.66;5094411;28;20260;-67
2023/04/29 07:23:18;;;;;;;51.60;28.03;;;;;;;8.87;96.14;101152.78;5076144;28;20678;-67
2023/04/29 07:25:44;;;;;;;50.80;28.77;;;;;;;8.82;96.20;101154.84;5093088;28;20258;-68
2023/04/29 07:28:10;;;;;;;58.57;29.77;;;;;;;8.83;96.30;101169.91;5076105;28;20201;-67
2023/04/29 07:30:37;;;;;;;57.70;27.30;;;;;;;8.89;95.90;101174.91;5076090;28;20186;-67
2023/04/29 07:33:03;;;;;;;60.47;27.13;;;;;;;8.95;95.84;101171.03;5059535;28;20189;-68
2023/04/29 07:35:30;;;;;;;57.97;28.73;;;;;;;8.92;95.59;101181.91;5076159;28;20240;-68
2023/04/29 07:37:57;;;;;;;52.50;27.27;;;;;;;8.99;95.80;101180.59;5075958;28;20567;-68
2023/04/29 07:40:24;;;;;;;64.67;30.87;;;;;;;9.00;95.45;101186.78;5076169;28;20221;-67
2023/04/29 07:42:52;;;;;;;64.27;30.07;;;;;;;8.97;95.44;101190.50;5076303;28;20208;-67
2023/04/29 07:45:19;;;;;;;61.97;27.07;;;;;;;8.98;95.11;101192.25;5075739;28;20248;-68
2023/04/29 07:47:45;;;;;;;59.33;29.10;;;;;;;9.00;95.30;101197.47;5075768;28;20297;-67
2023/04/29 07:50:12;;;;;;;53.60;28.07;;;;;;;9.01;95.51;101199.22;5076556;28;20235;-67
2023/04/29 07:52:38;;;;;;;74.73;32.37;;;;;;;8.99;95.82;101198.44;5094092;28;20228;-67
2023/04/29 07:55:05;;;;;;;68.50;31.43;;;;;;;9.02;95.54;101204.44;5093734;28;20268;-68
2023/04/29 07:57:31;;;;;;;60.10;29.97;;;;;;;9.06;95.56;101208.66;5075790;28;20189;-67
2023/04/29 07:59:58;;;;;;;61.10;30.87;;;;;;;9.06;95.46;101215.84;5075373;28;20624;-67
2023/04/29 08:02:24;;;;;;;62.03;30.27;;;;;;;9.05;95.61;101208.75;5075208;28;20651;-67
2023/04/29 08:04:53;;;;;;;61.17;31.17;;;;;;;9.13;95.68;101217.19;5092432;28;20310;-67
2023/04/29 08:07:20;;;;;;;60.93;27.77;;;;;;;9.14;95.39;101211.75;5075473;28;20214;-67
2023/04/29 08:09:46;;;;;;;58.67;28.50;;;;;;;9.15;95.50;101217.97;5094100;28;20190;-67
2023/04/29 08:12:13;;;;;;;63.20;29.87;;;;;;;9.19;95.47;101224.84;5075454;28;20215;-67
2023/04/29 08:14:39;;;;;;;66.50;28.97;;;;;;;9.19;95.19;101224.84;5075447;28;20194;-67
2023/04/29 08:17:07;;;;;;;54.63;29.37;;;;;;;9.15;95.18;101228.66;5093663;28;20202;-68
2023/04/29 08:19:33;;;;;;;74.63;31.43;;;;;;;9.22;94.55;101222.03;5093693;28;20193;-67
2023/04/29 08:22:00;;;;;;;70.43;32.13;;;;;;;9.21;94.17;101230.13;5093336;28;20205;-67
2023/04/29 08:24:27;;;;;;;62.43;32.17;;;;;;;9.18;94.30;101236.50;5093376;28;20186;-67
2023/04/29 08:26:54;;;;;;;68.63;31.53;;;;;;;9.23;94.08;101241.59;5093175;28;20710;-68
2023/04/29 08:29:20;;;;;;;60.90;30.83;;;;;;;9.28;93.90;101243.03;5093897;28;20204;-67
2023/04/29 08:31:47;;;;;;;64.17;30.60;;;;;;;9.28;93.81;101245.69;5093604;28;20202;-68
2023/04/29 08:34:13;;;;;;;61.27;28.23;;;;;;;9.28;94.23;101243.03;5093866;28;20640;-68
2023/04/29 08:36:40;;;;;;;64.30;29.53;;;;;;;9.34;94.18;101244.50;5093244;28;20202;-67
2023/04/29 08:39:06;;;;;;;55.47;28.13;;;;;;;9.39;94.40;101254.94;5093579;28;20185;-67
2023/04/29 08:41:33;;;;;;;63.13;29.07;;;;;;;9.42;94.30;101250.25;5093218;28;20205;-67
2023/04/29 08:43:59;;;;;;;59.27;29.80;;;;;;;9.47;94.48;101252.66;5093490;28;20184;-67
2023/04/29 08:46:26;;;;;;;52.17;28.40;;;;;;;9.50;94.22;101261.34;5093394;28;20576;-67
2023/04/29 08:48:55;;;;;;;57.77;29.87;;;;;;;9.49;93.80;101264.13;5093558;28;20193;-67
2023/04/29 08:51:21;;;;;;;59.37;29.60;;;;;;;9.56;94.02;101263.66;5093213;28;20189;-67
2023/04/29 08:53:48;;;;;;;61.97;29.07;;;;;;;9.60;93.44;101261.69;5093562;28;20673;-68
2023/04/29 08:56:20;;;;;;;60.60;28.90;;;;;;;9.63;93.18;101260.66;5093327;28;20213;-67
2023/04/29 08:58:58;;;;;;;64.90;28.87;;;;;;;9.65;92.86;101266.72;5093760;28;20587;-67
2023/04/29 09:01:27;;;;;;;63.87;29.13;;;;;;;9.70;92.36;101268.19;5093558;28;20620;-67
2023/04/29 09:04:15;;;;;;;55.90;28.67;;;;;;;9.72;92.31;101274.31;5093135;28;20184;-67
2023/04/29 09:06:42;;;;;;;61.70;27.97;;;;;;;9.71;92.18;101275.25;5093570;28;20241;-67
2023/04/29 09:09:09;;;;;;;51.07;27.20;;;;;;;9.77;91.96;101271.38;5093540;28;20272;-66
2023/04/29 09:11:36;;;;;;;59.20;29.00;;;;;;;9.76;92.22;101278.53;5092978;28;20565;-67
2023/04/29 09:14:03;;;;;;;52.13;30.10;;;;;;;9.84;92.32;101280.75;5095996;28;20218;-67
2023/04/29 09:16:29;;;;;;;59.40;30.93;;;;;;;9.85;91.81;101286.97;5097484;28;20206;-67
2023/04/29 09:18:56;;;;;;;58.17;28.27;;;;;;;9.86;91.78;101286.00;5096745;28;20182;-67
2023/04/29 09:21:26;;;;;;;58.37;28.47;;;;;;;9.89;91.51;101289.38;5096751;28;20186;-67
2023/04/29 09:24:02;;;;;;;56.73;29.53;;;;;;;9.91;91.38;101294.59;5096686;28;20263;-67
2023/04/29 09:26:42;;;;;;;49.37;27.17;;;;;;;9.93;91.02;101293.56;5096504;28;20209;-67
2023/04/29 09:29:12;;;;;;;50.73;27.10;;;;;;;9.99;91.36;101301.22;5096892;28;20193;-67
2023/04/29 09:31:39;;;;;;;60.80;29.73;;;;;;;10.05;91.29;101305.34;5096587;28;20178;-67
2023/04/29 09:34:07;;;;;;;56.73;27.93;;;;;;;10.08;90.74;101310.53;5096804;28;20202;-67
2023/04/29 09:36:40;;;;;;;62.00;28.97;;;;;;;10.14;90.80;101317.31;5097040;28;20208;-67
2023/04/29 09:39:11;;;;;;;59.37;28.87;;;;;;;10.14;90.10;101311.97;5097106;28;20189;-67
2023/04/29 09:41:42;;;;;;;58.53;29.40;;;;;;;10.22;89.75;101315.03;5096410;28;20181;-67
2023/04/29 09:44:09;;;;;;;52.93;28.23;;;;;;;10.26;89.98;101313.88;5096600;28;20260;-67
2023/04/29 09:46:36;;;;;;;46.83;25.47;;;;;;;10.28;89.96;101325.41;5096208;28;20216;-67
2023/04/29 09:49:03;;;;;;;47.77;26.20;;;;;;;10.33;89.86;101328.66;5096478;28;20182;-67
2023/04/29 09:51:33;;;;;;;55.37;29.00;;;;;;;10.35;89.55;101324.06;5096665;28;20585;-67
2023/04/29 09:54:01;;;;;;;48.63;29.63;;;;;;;10.41;89.32;101330.84;5096744;28;20181;-66
2023/04/29 09:56:47;;;;;;;45.60;25.63;;;;;;;10.49;89.37;101317.03;5096306;28;20573;-66
2023/04/29 09:59:13;;;;;;;46.90;25.87;;;;;;;10.63;89.06;101320.56;5096100;28;20281;-67
2023/04/29 10:01:40;;;;;;;44.60;26.87;;;;;;;10.76;88.62;101314.44;5096146;28;20190;-67
2023/04/29 10:04:08;;;;;;;52.30;26.47;;;;;;;10.86;88.24;101319.09;5096175;28;20186;-67
2023/04/29 10:06:37;;;;;;;45.93;27.53;;;;;;;10.93;88.58;101316.03;5095886;28;20214;-67
2023/04/29 10:09:06;;;;;;;47.57;28.30;;;;;;;10.97;88.43;101314.88;5095854;28;20190;-67
2023/04/29 10:11:33;;;;;;;46.00;25.10;;;;;;;11.06;87.61;101322.31;5095835;28;20197;-67
2023/04/29 10:14:02;;;;;;;50.27;28.07;;;;;;;11.11;87.85;101328.25;5096213;28;20189;-67
2023/04/29 10:16:32;;;;;;;44.87;27.73;;;;;;;11.18;86.84;101328.69;5095930;28;20602;-67
2023/04/29 10:19:02;;;;;;;44.30;26.93;;;;;;;11.26;86.72;101323.72;5096175;28;20166;-67
2023/04/29 10:21:30;;;;;;;39.47;26.90;;;;;;;11.34;86.08;101331.25;5096153;28;20179;-67
2023/04/29 10:23:58;;;;;;;37.50;25.87;;;;;;;11.42;86.77;101324.44;5095085;28;20243;-67
2023/04/29 10:26:28;;;;;;;43.00;27.63;;;;;;;11.49;85.72;101322.19;5095581;28;20209;-67
2023/04/29 10:28:56;;;;;;;39.43;26.70;;;;;;;11.61;85.16;101329.44;5095489;28;20193;-67
2023/04/29 10:31:26;;;;;;;39.07;25.83;;;;;;;11.67;85.15;101333.53;5095634;28;20650;-67
2023/04/29 10:33:57;;;;;;;37.20;25.47;;;;;;;11.75;84.35;101325.81;5095332;28;20250;-67
2023/04/29 10:36:27;;;;;;;44.90;28.20;;;;;;;11.79;83.33;101330.03;5095649;28;20206;-67
2023/04/29 10:38:57;;;;;;;40.33;28.30;;;;;;;11.79;82.51;101331.84;5095644;28;20236;-67
2023/04/29 10:41:28;;;;;;;40.03;27.40;;;;;;;11.84;82.11;101327.91;5095845;28;20260;-67
2023/04/29 10:43:57;;;;;;;46.67;28.73;;;;;;;11.93;83.46;101329.13;5095391;28;20206;-67
2023/04/29 10:46:25;;;;;;;38.20;24.80;;;;;;;12.08;83.22;101335.28;5095238;28;20212;-67
2023/04/29 10:48:59;;;;;;;32.47;23.87;;;;;;;12.13;81.91;101328.63;5095070;28;20231;-66
2023/04/29 10:51:47;;;;;;;38.67;26.83;;;;;;;12.22;81.89;101329.81;5095606;28;20178;-66
2023/04/29 10:54:15;;;;;;;38.13;25.63;;;;;;;12.24;80.33;101344.00;5095025;28;20178;-66
2023/04/29 10:56:43;;;;;;;38.97;24.30;;;;;;;12.24;78.15;101338.63;5095368;28;20201;-67
2023/04/29 10:59:11;;;;;;;35.13;23.90;;;;;;;12.19;79.56;101346.16;5094919;28;20189;-67
2023/04/29 11:01:46;;;;;;;33.03;23.00;;;;;;;12.30;80.32;101346.25;5094852;28;20190;-67
2023/04/29 11:04:14;;;;;;;30.27;24.87;;;;;;;12.30;80.09;101346.25;5094930;28;20193;-67
2023/04/29 11:06:44;;;;;;;37.23;24.87;;;;;;;12.33;80.57;101348.75;5094612;28;20251;-67
2023/04/29 11:09:17;;;;;;;37.07;24.70;;;;;;;12.34;79.40;101350.47;5094983;28;20182;-67
2023/04/29 11:12:02;;;;;;;36.90;24.40;;;;;;;12.39;79.52;101352.81;5094903;28;20261;-67
2023/04/29 11:14:30;;;;;;;30.17;23.43;;;;;;;12.39;79.64;101350.13;5094555;28;20174;-67
2023/04/29 11:16:59;;;;;;;30.90;22.77;;;;;;;12.41;79.55;101350.03;5094507;28;20301;-67
2023/04/29 11:19:31;;;;;;;33.40;23.77;;;;;;;12.41;78.29;101352.72;5094411;28;20656;-67
2023/04/29 11:22:22;;;;;;;41.57;25.43;;;;;;;12.43;78.63;101357.03;5094373;28;20166;-67
2023/04/29 11:24:50;;;;;;;41.47;25.50;;;;;;;12.46;78.28;101347.91;5094702;28;20235;-67
2023/04/29 11:27:19;;;;;;;33.03;24.90;;;;;;;12.54;78.75;101350.88;5094158;28;20213;-67